Shade, Ohio
Current Conditions -  °F | °C
As of 8:35 PM on Saturday 25 Oct 2014 (Local Time) from KUNI Reporting Station
Clear Clear  
Wind Chill: 62°   Ceiling: Unl
Heat Index: 62°   Visibility: 10mi
Dew Point: 53°   Wind: 7mph
Humidity: 73%   Direction: 220°SW
Pressure: 29.85"   Gusts: NA
Location:  39.23°N, 82.04°W
Report Text: KUNI 260035Z AUTO 22006KT 10SM CLR 17/12 A2985 RMK AO2 T01660118
Loading
Personal Weather Stations






























Interactive Weather Map
Tropical Storm Tracking
New forecast layout! Learn more

10-Day Weather Forecast

Advertisements
Track Severe Weather on mobile